createdAt,value
2022-10-19T00:02:18.417Z,11.30
2022-10-19T00:05:05.518Z,11.30
2022-10-19T00:07:51.863Z,11.20
2022-10-19T00:10:41.776Z,11.20
2022-10-19T00:13:29.424Z,11.20
2022-10-19T00:16:17.567Z,11.10
2022-10-19T00:19:06.986Z,11.10
2022-10-19T00:21:54.012Z,11.00
2022-10-19T00:27:27.484Z,11.00
2022-10-19T00:30:15.413Z,10.90
2022-10-19T00:33:01.490Z,10.90
2022-10-19T00:35:49.787Z,10.90
2022-10-19T00:38:36.050Z,10.90
2022-10-19T00:41:25.178Z,10.80
2022-10-19T00:44:59.608Z,10.80
2022-10-19T00:47:48.354Z,10.80
2022-10-19T00:50:34.732Z,10.80
2022-10-19T00:53:21.330Z,10.80
2022-10-19T00:56:13.406Z,10.80
2022-10-19T00:59:00.202Z,10.90
2022-10-19T01:01:47.797Z,10.90
2022-10-19T01:04:39.785Z,10.90
2022-10-19T01:07:27.701Z,11.00
2022-10-19T01:10:14.586Z,11.00
2022-10-19T01:13:13.635Z,11.00
2022-10-19T01:16:07.310Z,11.00
2022-10-19T01:18:59.962Z,11.20
2022-10-19T01:21:50.629Z,11.10
2022-10-19T01:24:52.904Z,11.10
2022-10-19T01:28:00.067Z,11.20
2022-10-19T01:30:52.586Z,11.20
2022-10-19T01:33:47.479Z,11.20
2022-10-19T01:36:42.441Z,11.30
2022-10-19T01:39:39.364Z,11.30
2022-10-19T01:42:31.415Z,11.40
2022-10-19T01:45:22.570Z,11.50
2022-10-19T01:48:14.129Z,11.50
2022-10-19T01:51:04.188Z,11.50
2022-10-19T01:53:53.921Z,11.50
2022-10-19T01:56:43.556Z,11.50
2022-10-19T01:59:31.161Z,11.40
2022-10-19T02:02:19.148Z,11.40
2022-10-19T02:05:09.243Z,11.40
2022-10-19T02:08:00.104Z,11.40
2022-10-19T02:10:47.384Z,11.40
2022-10-19T02:13:35.446Z,11.50
2022-10-19T02:16:27.027Z,11.40
2022-10-19T02:19:15.734Z,11.30
2022-10-19T02:22:03.653Z,11.30
2022-10-19T02:24:50.130Z,11.20
2022-10-19T02:27:37.736Z,11.20
2022-10-19T02:30:24.010Z,11.00
2022-10-19T02:33:12.268Z,11.00
2022-10-19T02:35:59.254Z,11.00
2022-10-19T02:38:46.892Z,11.00
2022-10-19T02:41:37.762Z,11.00
2022-10-19T02:44:27.190Z,10.80
2022-10-19T02:47:18.155Z,11.00
2022-10-19T02:50:06.730Z,10.90
2022-10-19T02:52:53.055Z,10.90
2022-10-19T02:58:32.034Z,10.80
2022-10-19T03:01:18.317Z,10.80
2022-10-19T03:04:05.122Z,10.90
2022-10-19T03:06:51.298Z,10.80
2022-10-19T03:09:38.136Z,10.80
2022-10-19T03:12:25.662Z,10.80
2022-10-19T03:15:15.886Z,10.70
2022-10-19T03:18:02.359Z,10.60
2022-10-19T03:20:48.831Z,10.60
2022-10-19T03:23:35.751Z,10.60
2022-10-19T03:26:22.019Z,10.50
2022-10-19T03:29:09.726Z,10.50
2022-10-19T03:31:56.442Z,10.50
2022-10-19T03:34:42.647Z,10.50
2022-10-19T03:37:29.322Z,10.40
2022-10-19T03:40:15.553Z,10.40
2022-10-19T03:43:02.082Z,10.30
2022-10-19T03:45:49.839Z,10.30
2022-10-19T03:48:36.814Z,10.30
2022-10-19T03:51:24.894Z,10.20
2022-10-19T03:54:14.819Z,10.20
2022-10-19T03:57:01.023Z,10.30
2022-10-19T03:59:47.539Z,10.10
2022-10-19T04:02:35.352Z,10.10
2022-10-19T04:05:21.832Z,10.10
2022-10-19T04:08:08.070Z,10.00
2022-10-19T04:10:59.115Z,10.00
2022-10-19T04:13:45.474Z,10.00
2022-10-19T04:16:33.362Z,10.00
2022-10-19T04:19:20.984Z,9.90
2022-10-19T04:22:07.527Z,9.90
2022-10-19T04:24:54.761Z,9.90
2022-10-19T04:27:41.418Z,10.00
2022-10-19T04:30:27.707Z,9.90
2022-10-19T04:33:14.142Z,9.90
2022-10-19T04:36:02.851Z,9.90
2022-10-19T04:38:49.333Z,9.90
2022-10-19T04:41:36.133Z,9.90
2022-10-19T04:47:13.935Z,9.90
2022-10-19T04:50:00.424Z,9.80
2022-10-19T04:52:48.025Z,9.70
2022-10-19T04:55:34.758Z,9.80
2022-10-19T04:58:20.972Z,9.80
2022-10-19T05:01:11.316Z,9.80
2022-10-19T05:03:59.433Z,9.80
2022-10-19T05:06:46.009Z,9.80
2022-10-19T05:09:33.783Z,9.80
2022-10-19T05:12:20.323Z,9.90
2022-10-19T05:15:07.777Z,10.00
2022-10-19T05:17:55.006Z,10.10
2022-10-19T05:20:41.505Z,10.10
2022-10-19T05:23:28.217Z,10.20
2022-10-19T05:26:18.399Z,10.10
2022-10-19T05:29:04.983Z,10.10
2022-10-19T05:31:51.206Z,10.20
2022-10-19T05:34:37.752Z,10.30
2022-10-19T05:37:25.609Z,10.30
2022-10-19T05:40:12.284Z,10.30
2022-10-19T05:42:59.966Z,10.40
2022-10-19T05:45:46.318Z,10.40
2022-10-19T05:48:33.986Z,10.50
2022-10-19T05:51:22.451Z,10.50
2022-10-19T05:54:09.672Z,10.40
2022-10-19T05:56:56.038Z,10.50
2022-10-19T05:59:43.639Z,10.50
2022-10-19T06:02:30.286Z,10.60
2022-10-19T06:05:16.713Z,10.60
2022-10-19T06:08:03.502Z,10.70
2022-10-19T06:10:50.478Z,10.70
2022-10-19T06:13:37.021Z,10.80
2022-10-19T06:16:26.963Z,10.80
2022-10-19T06:19:13.599Z,10.90
2022-10-19T06:21:59.711Z,10.80
2022-10-19T06:24:46.128Z,10.90
2022-10-19T06:27:33.348Z,10.90
2022-10-19T06:30:20.027Z,10.90
2022-10-19T06:33:07.635Z,10.90
2022-10-19T06:35:54.315Z,10.90
2022-10-19T06:38:40.789Z,11.00
2022-10-19T06:41:27.322Z,11.00
2022-10-19T06:44:13.868Z,11.00
2022-10-19T06:47:00.178Z,11.00
2022-10-19T06:49:47.759Z,11.00
2022-10-19T06:52:34.588Z,11.00
2022-10-19T06:55:21.470Z,11.00
2022-10-19T06:58:08.028Z,11.10
2022-10-19T07:00:58.078Z,11.20
2022-10-19T07:03:44.734Z,11.20
2022-10-19T07:06:32.657Z,11.30
2022-10-19T07:09:19.677Z,11.30
2022-10-19T07:12:06.681Z,11.30
2022-10-19T07:14:54.334Z,11.40
2022-10-19T07:17:40.542Z,11.50
2022-10-19T07:20:27.131Z,11.50
2022-10-19T07:23:14.857Z,11.60
2022-10-19T07:26:05.615Z,11.70
2022-10-19T07:28:52.461Z,11.70
2022-10-19T07:31:39.030Z,11.80
2022-10-19T07:34:28.239Z,11.70
2022-10-19T07:37:15.798Z,11.90
2022-10-19T07:40:03.474Z,11.90
2022-10-19T07:42:49.809Z,11.80
2022-10-19T07:45:36.333Z,11.80
2022-10-19T07:48:22.582Z,11.90
2022-10-19T07:51:10.708Z,11.90
2022-10-19T07:53:58.327Z,12.00
2022-10-19T07:56:45.880Z,12.00
2022-10-19T07:59:32.065Z,12.00
2022-10-19T08:02:20.060Z,12.10
2022-10-19T08:05:10.512Z,12.20
2022-10-19T08:07:57.761Z,12.30
2022-10-19T08:10:44.493Z,12.30
2022-10-19T08:13:32.170Z,12.30
2022-10-19T08:16:25.114Z,12.30
2022-10-19T08:19:13.595Z,12.40
2022-10-19T08:22:00.033Z,12.50
2022-10-19T08:24:46.321Z,12.40
2022-10-19T08:27:33.105Z,12.40
2022-10-19T08:30:20.902Z,12.60
2022-10-19T08:33:08.306Z,12.70
2022-10-19T08:35:54.901Z,12.70
2022-10-19T08:38:43.699Z,12.80
2022-10-19T08:41:37.499Z,12.90
2022-10-19T08:44:51.766Z,13.00
2022-10-19T08:47:53.282Z,13.20
2022-10-19T08:50:44.816Z,13.30
2022-10-19T08:53:40.361Z,13.40
2022-10-19T08:56:50.967Z,13.60
2022-10-19T08:59:41.631Z,13.70
2022-10-19T09:02:42.336Z,13.90
2022-10-19T09:05:38.828Z,14.00
2022-10-19T09:08:25.288Z,14.10
2022-10-19T09:11:12.484Z,14.20
2022-10-19T09:14:06.799Z,14.30
2022-10-19T09:16:53.402Z,14.30
2022-10-19T09:19:39.828Z,14.30
2022-10-19T09:22:32.422Z,14.50
2022-10-19T09:25:21.748Z,14.50
2022-10-19T09:28:20.723Z,14.60
2022-10-19T09:31:13.053Z,14.60
2022-10-19T09:34:03.073Z,14.40
2022-10-19T09:36:54.430Z,14.60
2022-10-19T09:39:50.410Z,14.50
2022-10-19T09:42:41.480Z,14.60
2022-10-19T09:45:35.406Z,14.80
2022-10-19T09:48:29.757Z,15.00
2022-10-19T09:51:18.031Z,15.00
2022-10-19T09:54:05.370Z,15.10
2022-10-19T09:56:57.619Z,15.10
2022-10-19T09:59:43.918Z,15.10
2022-10-19T10:02:32.222Z,14.90
2022-10-19T10:05:20.647Z,15.10
2022-10-19T10:08:15.148Z,15.10
2022-10-19T10:11:08.741Z,15.20
2022-10-19T10:14:00.526Z,15.30
2022-10-19T10:16:47.207Z,15.20
2022-10-19T10:19:37.226Z,15.30
2022-10-19T10:22:27.581Z,15.30
2022-10-19T10:25:19.159Z,15.20
2022-10-19T10:28:19.623Z,15.20
2022-10-19T10:31:08.729Z,15.00
2022-10-19T10:34:06.491Z,15.10
2022-10-19T10:37:05.464Z,14.80
2022-10-19T10:39:53.764Z,14.80
2022-10-19T10:42:43.975Z,14.80
2022-10-19T10:45:33.468Z,14.80
2022-10-19T10:48:29.396Z,14.70
2022-10-19T10:51:21.941Z,14.80
2022-10-19T10:54:18.970Z,14.70
2022-10-19T10:57:16.909Z,14.70
2022-10-19T11:00:11.053Z,14.60
2022-10-19T11:03:05.664Z,14.60
2022-10-19T11:05:57.919Z,14.70
2022-10-19T11:08:50.266Z,14.70
2022-10-19T11:11:38.899Z,14.50
2022-10-19T11:14:36.178Z,14.40
2022-10-19T11:17:26.251Z,14.30
2022-10-19T11:20:16.721Z,14.30
2022-10-19T11:23:15.460Z,14.20
2022-10-19T11:26:15.406Z,14.20
2022-10-19T11:29:15.474Z,14.00
2022-10-19T11:32:02.054Z,13.90
2022-10-19T11:35:05.553Z,14.10
2022-10-19T11:38:19.748Z,14.10
2022-10-19T11:41:23.392Z,13.90
2022-10-19T11:44:26.155Z,13.70
2022-10-19T11:47:33.537Z,13.60
2022-10-19T11:50:37.000Z,13.50
2022-10-19T11:53:29.931Z,13.40
2022-10-19T11:56:34.778Z,13.50
2022-10-19T11:59:38.058Z,13.60
2022-10-19T12:02:53.195Z,13.50
2022-10-19T12:05:48.226Z,13.50
2022-10-19T12:08:56.190Z,13.40
2022-10-19T12:11:57.735Z,13.40
2022-10-19T12:14:47.570Z,13.40
2022-10-19T12:17:37.401Z,13.30
2022-10-19T12:20:31.326Z,13.30
2022-10-19T12:23:28.984Z,13.20
2022-10-19T12:29:13.470Z,13.20
2022-10-19T12:32:01.885Z,13.30
2022-10-19T12:34:54.931Z,13.30
2022-10-19T12:37:45.578Z,13.40
2022-10-19T12:40:38.151Z,13.50
2022-10-19T12:43:34.043Z,13.50
2022-10-19T12:46:32.166Z,13.30
2022-10-19T12:49:44.462Z,13.20
2022-10-19T12:52:44.394Z,13.30
2022-10-19T12:55:34.852Z,13.30
2022-10-19T12:58:23.425Z,13.30
2022-10-19T13:01:16.596Z,13.20
2022-10-19T13:04:13.784Z,13.00
2022-10-19T13:07:03.447Z,13.00
2022-10-19T13:09:50.485Z,13.10
2022-10-19T13:12:47.785Z,13.00
2022-10-19T13:15:58.710Z,12.90
2022-10-19T13:19:04.215Z,13.00
2022-10-19T13:22:08.519Z,13.00
2022-10-19T13:25:26.819Z,12.90
2022-10-19T13:28:52.607Z,13.10
2022-10-19T13:31:39.033Z,13.10
2022-10-19T13:34:26.060Z,13.00
2022-10-19T13:37:13.998Z,13.00
2022-10-19T13:40:00.293Z,13.20
2022-10-19T13:42:47.103Z,13.30
2022-10-19T13:45:33.541Z,13.40
2022-10-19T13:48:25.490Z,13.50
2022-10-19T13:51:20.825Z,13.30
2022-10-19T13:54:27.864Z,13.20
2022-10-19T13:57:21.687Z,13.20
2022-10-19T14:00:16.759Z,13.00
2022-10-19T14:03:23.782Z,13.00
2022-10-19T14:06:27.695Z,13.00
2022-10-19T14:09:47.773Z,13.00
2022-10-19T14:12:40.526Z,13.00
2022-10-19T14:15:29.954Z,13.00
2022-10-19T14:18:24.843Z,13.10
2022-10-19T14:21:11.623Z,12.90
2022-10-19T14:23:58.455Z,12.80
2022-10-19T14:26:44.909Z,12.80
2022-10-19T14:29:37.566Z,12.80
2022-10-19T14:32:26.417Z,12.90
2022-10-19T14:35:22.053Z,13.00
2022-10-19T14:38:09.780Z,13.10
2022-10-19T14:40:56.983Z,13.00
2022-10-19T14:43:43.411Z,13.10
2022-10-19T14:46:32.393Z,13.00
2022-10-19T14:49:18.832Z,13.10
2022-10-19T14:52:05.666Z,13.00
2022-10-19T14:54:54.257Z,13.00
2022-10-19T14:57:42.958Z,13.00
2022-10-19T15:00:33.843Z,12.90
2022-10-19T15:03:26.799Z,12.80
2022-10-19T15:06:20.529Z,12.70
2022-10-19T15:09:15.393Z,12.60
2022-10-19T15:12:17.673Z,12.60
2022-10-19T15:15:09.140Z,12.60
2022-10-19T15:17:57.875Z,12.50
2022-10-19T15:21:01.186Z,12.40
2022-10-19T15:23:52.751Z,12.50
2022-10-19T15:26:39.113Z,12.50
2022-10-19T15:29:30.359Z,12.40
2022-10-19T15:35:12.796Z,12.20
2022-10-19T15:40:57.351Z,12.30
2022-10-19T15:43:49.323Z,12.30
2022-10-19T15:46:53.268Z,12.30
2022-10-19T15:50:00.662Z,12.30
2022-10-19T15:52:47.175Z,12.30
2022-10-19T15:55:34.808Z,12.20
2022-10-19T15:58:21.530Z,12.10
2022-10-19T16:01:12.619Z,12.10
2022-10-19T16:03:59.546Z,12.00
2022-10-19T16:09:34.401Z,11.90
2022-10-19T16:12:22.536Z,12.00
2022-10-19T16:15:12.506Z,12.00
2022-10-19T16:18:00.565Z,12.00
2022-10-19T16:20:47.353Z,11.90
2022-10-19T16:23:39.347Z,11.80
2022-10-19T16:26:31.849Z,11.80
2022-10-19T16:29:19.672Z,11.80
2022-10-19T16:32:06.314Z,11.80
2022-10-19T16:34:52.937Z,11.80
2022-10-19T16:37:39.206Z,11.70
2022-10-19T16:40:25.437Z,11.70
2022-10-19T16:43:11.670Z,11.70
2022-10-19T16:45:59.438Z,11.70
2022-10-19T16:48:45.574Z,11.80
2022-10-19T16:51:36.533Z,11.70
2022-10-19T16:54:23.148Z,11.60
2022-10-19T16:57:10.069Z,11.60
2022-10-19T16:59:56.630Z,11.60
2022-10-19T17:02:46.403Z,11.60
2022-10-19T17:05:33.097Z,11.70
2022-10-19T17:08:19.551Z,11.80
2022-10-19T17:11:13.918Z,11.70
2022-10-19T17:14:02.047Z,11.60
2022-10-19T17:16:48.199Z,11.50
2022-10-19T17:19:36.556Z,11.60
2022-10-19T17:22:23.077Z,11.50
2022-10-19T17:25:10.422Z,11.30
2022-10-19T17:27:56.788Z,11.20
2022-10-19T17:30:43.311Z,11.10
2022-10-19T17:33:29.481Z,11.10
2022-10-19T17:36:19.397Z,11.10
2022-10-19T17:39:07.721Z,11.10
2022-10-19T17:41:54.402Z,11.10
2022-10-19T17:44:40.685Z,11.00
2022-10-19T17:47:27.005Z,11.00
2022-10-19T17:50:13.191Z,11.00
2022-10-19T17:53:01.596Z,10.90
2022-10-19T17:55:48.207Z,10.80
2022-10-19T17:58:39.152Z,10.90
2022-10-19T18:01:27.377Z,10.90
2022-10-19T18:04:13.884Z,10.80
2022-10-19T18:07:00.271Z,10.80
2022-10-19T18:09:48.333Z,10.70
2022-10-19T18:12:34.818Z,10.70
2022-10-19T18:15:21.613Z,10.80
2022-10-19T18:18:07.798Z,10.60
2022-10-19T18:20:53.982Z,10.70
2022-10-19T18:23:40.773Z,10.60
2022-10-19T18:26:31.190Z,10.50
2022-10-19T18:29:21.406Z,10.50
2022-10-19T18:32:07.601Z,10.50
2022-10-19T18:34:53.949Z,10.40
2022-10-19T18:37:40.490Z,10.40
2022-10-19T18:40:26.810Z,10.40
2022-10-19T18:43:14.752Z,10.40
2022-10-19T18:46:02.249Z,10.40
2022-10-19T18:48:49.893Z,10.30
2022-10-19T18:51:36.992Z,10.30
2022-10-19T18:54:23.291Z,10.30
2022-10-19T18:57:09.555Z,10.30
2022-10-19T18:59:57.126Z,10.30
2022-10-19T19:02:46.790Z,10.20
2022-10-19T19:05:34.220Z,10.20
2022-10-19T19:08:20.430Z,10.10
2022-10-19T19:11:11.191Z,10.10
2022-10-19T19:13:59.478Z,10.00
2022-10-19T19:16:47.478Z,10.10
2022-10-19T19:19:33.809Z,10.00
2022-10-19T19:22:20.400Z,10.00
2022-10-19T19:25:07.404Z,10.10
2022-10-19T19:27:54.015Z,9.90
2022-10-19T19:30:41.949Z,9.90
2022-10-19T19:33:29.683Z,9.80
2022-10-19T19:36:17.634Z,9.80
2022-10-19T19:39:05.289Z,9.70
2022-10-19T19:41:52.058Z,9.70
2022-10-19T19:44:38.523Z,9.70
2022-10-19T19:47:24.908Z,9.60
2022-10-19T19:50:12.837Z,9.70
2022-10-19T19:53:00.246Z,9.60
2022-10-19T19:55:48.365Z,9.50
2022-10-19T19:58:34.878Z,9.50
2022-10-19T20:01:22.569Z,9.50
2022-10-19T20:04:09.385Z,9.50
2022-10-19T20:06:57.268Z,9.50
2022-10-19T20:09:43.438Z,9.50
2022-10-19T20:12:30.251Z,9.40
2022-10-19T20:15:18.275Z,9.40
2022-10-19T20:18:04.688Z,9.40
2022-10-19T20:20:51.102Z,9.50
2022-10-19T20:23:39.241Z,9.40
2022-10-19T20:26:26.701Z,9.40
2022-10-19T20:29:12.908Z,9.30
2022-10-19T20:31:59.183Z,9.40
2022-10-19T20:34:45.739Z,9.40
2022-10-19T20:37:32.314Z,9.50
2022-10-19T20:40:20.418Z,9.50
2022-10-19T20:43:06.603Z,9.40
2022-10-19T20:45:53.122Z,9.50
2022-10-19T20:48:40.229Z,9.40
2022-10-19T20:51:32.076Z,9.30
2022-10-19T20:54:18.957Z,9.30
2022-10-19T20:57:07.182Z,9.30
2022-10-19T20:59:53.436Z,9.20
2022-10-19T21:02:39.841Z,9.30
2022-10-19T21:05:26.162Z,9.20
2022-10-19T21:08:15.284Z,9.20
2022-10-19T21:11:02.233Z,9.10
2022-10-19T21:13:53.405Z,9.00
2022-10-19T21:16:40.063Z,9.00
2022-10-19T21:19:28.250Z,8.90
2022-10-19T21:22:14.794Z,8.90
2022-10-19T21:25:01.370Z,8.90
2022-10-19T21:27:47.525Z,8.90
2022-10-19T21:30:37.308Z,8.80
2022-10-19T21:33:26.479Z,8.80
2022-10-19T21:36:13.961Z,8.80
2022-10-19T21:39:00.532Z,8.70
2022-10-19T21:41:47.494Z,8.80
2022-10-19T21:44:33.723Z,8.70
2022-10-19T21:47:21.598Z,8.70
2022-10-19T21:50:08.801Z,8.70
2022-10-19T21:52:55.282Z,8.60
2022-10-19T21:55:41.493Z,8.50
2022-10-19T21:58:28.246Z,8.40
2022-10-19T22:01:15.525Z,8.30
2022-10-19T22:04:05.918Z,8.20
2022-10-19T22:06:52.492Z,8.20
2022-10-19T22:09:39.066Z,8.10
2022-10-19T22:12:25.370Z,8.10
2022-10-19T22:15:12.431Z,7.90
2022-10-19T22:20:46.641Z,7.90
2022-10-19T22:23:33.226Z,7.80
2022-10-19T22:26:23.129Z,7.80
2022-10-19T22:29:09.810Z,7.70
2022-10-19T22:31:56.317Z,7.70
2022-10-19T22:34:42.586Z,7.60
2022-10-19T22:37:30.462Z,7.70
2022-10-19T22:40:16.745Z,7.60
2022-10-19T22:43:06.122Z,7.60
2022-10-19T22:45:53.378Z,7.50
2022-10-19T22:48:40.098Z,7.60
2022-10-19T22:51:26.269Z,7.50
2022-10-19T22:54:14.551Z,7.50
2022-10-19T22:57:01.100Z,7.40
2022-10-19T22:59:47.569Z,7.30
2022-10-19T23:02:34.213Z,7.30
2022-10-19T23:05:21.083Z,7.30
2022-10-19T23:08:07.512Z,7.30
2022-10-19T23:10:55.478Z,7.20
2022-10-19T23:13:42.468Z,7.20
2022-10-19T23:19:20.315Z,7.30
2022-10-19T23:22:06.793Z,7.20
2022-10-19T23:24:53.121Z,7.10
2022-10-19T23:27:40.870Z,7.10
2022-10-19T23:30:27.145Z,7.10
2022-10-19T23:33:13.767Z,7.20
2022-10-19T23:36:03.507Z,7.10
2022-10-19T23:38:52.162Z,7.10
2022-10-19T23:41:38.871Z,7.10
2022-10-19T23:44:26.855Z,7.00
2022-10-19T23:47:12.971Z,7.00
2022-10-19T23:50:00.273Z,7.10
2022-10-19T23:55:33.825Z,7.10
2022-10-19T23:58:20.001Z,7.00
